createdAt,value
2022-08-28T00:02:28.809Z,16.81
2022-08-28T00:04:59.019Z,16.84
2022-08-28T00:07:35.519Z,16.79
2022-08-28T00:10:17.521Z,16.68
2022-08-28T00:12:50.701Z,16.79
2022-08-28T00:15:26.426Z,16.62
2022-08-28T00:18:04.769Z,16.56
2022-08-28T00:20:39.715Z,16.61
2022-08-28T00:23:19.720Z,16.74
2022-08-28T00:25:50.010Z,16.52
2022-08-28T00:28:27.083Z,16.42
2022-08-28T00:31:07.832Z,16.51
2022-08-28T00:33:44.053Z,16.41
2022-08-28T00:36:17.804Z,16.47
2022-08-28T00:38:53.746Z,16.47
2022-08-28T00:41:30.713Z,16.33
2022-08-28T00:44:17.473Z,16.30
2022-08-28T00:46:53.442Z,16.31
2022-08-28T00:49:29.726Z,16.41
2022-08-28T00:52:10.802Z,16.18
2022-08-28T00:54:59.680Z,16.18
2022-08-28T00:57:35.511Z,16.20
2022-08-28T01:00:08.770Z,16.20
2022-08-28T01:02:46.935Z,16.20
2022-08-28T01:05:18.239Z,16.21
2022-08-28T01:07:48.892Z,16.25
2022-08-28T01:10:26.421Z,16.25
2022-08-28T01:12:57.619Z,16.19
2022-08-28T01:15:31.813Z,16.23
2022-08-28T01:18:08.512Z,16.24
2022-08-28T01:20:45.233Z,16.20
2022-08-28T01:23:24.621Z,16.24
2022-08-28T01:25:57.465Z,16.22
2022-08-28T01:28:29.851Z,16.26
2022-08-28T01:31:01.628Z,16.27
2022-08-28T01:33:31.647Z,16.31
2022-08-28T01:36:01.906Z,16.34
2022-08-28T01:38:31.720Z,16.17
2022-08-28T01:41:04.196Z,16.36
2022-08-28T01:43:33.923Z,16.23
2022-08-28T01:46:07.468Z,16.10
2022-08-28T01:48:40.209Z,16.07
2022-08-28T01:51:10.464Z,16.06
2022-08-28T01:53:46.401Z,16.04
2022-08-28T01:56:19.697Z,15.98
2022-08-28T01:58:50.201Z,15.96
2022-08-28T02:01:24.254Z,16.08
2022-08-28T02:03:54.698Z,16.11
2022-08-28T02:06:26.931Z,16.05
2022-08-28T02:08:56.955Z,16.13
2022-08-28T02:11:30.602Z,16.07
2022-08-28T02:14:00.434Z,16.00
2022-08-28T02:16:33.440Z,16.06
2022-08-28T02:19:03.771Z,16.03
2022-08-28T02:21:33.950Z,16.02
2022-08-28T02:24:04.636Z,16.02
2022-08-28T02:26:37.135Z,15.95
2022-08-28T02:29:07.238Z,16.00
2022-08-28T02:31:37.354Z,15.92
2022-08-28T02:34:08.239Z,15.83
2022-08-28T02:36:38.100Z,15.73
2022-08-28T02:39:07.883Z,15.82
2022-08-28T02:41:41.522Z,15.77
2022-08-28T02:44:11.140Z,15.72
2022-08-28T02:46:41.089Z,15.75
2022-08-28T02:49:10.903Z,15.71
2022-08-28T02:51:41.090Z,15.80
2022-08-28T02:54:10.842Z,15.75
2022-08-28T02:56:44.120Z,15.75
2022-08-28T02:59:14.074Z,15.75
2022-08-28T03:01:45.545Z,15.78
2022-08-28T03:04:15.806Z,15.74
2022-08-28T03:06:47.021Z,15.66
2022-08-28T03:09:19.261Z,15.62
2022-08-28T03:11:54.118Z,15.59
2022-08-28T03:14:26.497Z,15.50
2022-08-28T03:16:56.491Z,15.56
2022-08-28T03:19:26.198Z,15.59
2022-08-28T03:21:56.926Z,15.58
2022-08-28T03:24:26.596Z,15.50
2022-08-28T03:27:02.320Z,15.56
2022-08-28T03:29:36.292Z,15.55
2022-08-28T03:32:06.768Z,15.57
2022-08-28T03:34:36.673Z,15.51
2022-08-28T03:37:06.435Z,15.45
2022-08-28T03:39:38.179Z,15.52
2022-08-28T03:42:12.129Z,15.62
2022-08-28T03:44:43.797Z,15.67
2022-08-28T03:47:14.110Z,15.61
2022-08-28T03:49:45.793Z,15.59
2022-08-28T03:52:15.688Z,15.58
2022-08-28T03:54:45.581Z,15.53
2022-08-28T03:57:19.891Z,15.52
2022-08-28T03:59:50.580Z,15.55
2022-08-28T04:02:21.156Z,15.53
2022-08-28T04:04:52.940Z,15.53
2022-08-28T04:07:22.937Z,15.54
2022-08-28T04:09:52.680Z,15.55
2022-08-28T04:12:25.867Z,15.50
2022-08-28T04:14:57.701Z,15.53
2022-08-28T04:17:27.416Z,15.51
2022-08-28T04:19:57.413Z,15.56
2022-08-28T04:22:29.856Z,15.51
2022-08-28T04:24:59.573Z,15.48
2022-08-28T04:27:32.250Z,15.52
2022-08-28T04:30:02.403Z,15.49
2022-08-28T04:32:32.244Z,15.34
2022-08-28T04:35:02.201Z,15.34
2022-08-28T04:37:31.921Z,15.31
2022-08-28T04:40:01.734Z,15.36
2022-08-28T04:42:34.551Z,15.42
2022-08-28T04:45:04.856Z,15.41
2022-08-28T04:47:39.226Z,15.43
2022-08-28T04:50:10.978Z,15.48
2022-08-28T04:52:43.292Z,15.35
2022-08-28T04:55:13.695Z,15.37
2022-08-28T04:57:47.909Z,15.40
2022-08-28T05:00:18.473Z,15.46
2022-08-28T05:02:48.078Z,15.48
2022-08-28T05:05:17.890Z,15.57
2022-08-28T05:07:48.583Z,15.56
2022-08-28T05:10:18.510Z,15.65
2022-08-28T05:12:51.194Z,15.74
2022-08-28T05:15:21.675Z,15.72
2022-08-28T05:17:51.320Z,15.80
2022-08-28T05:20:21.108Z,15.71
2022-08-28T05:22:51.486Z,15.77
2022-08-28T05:25:21.646Z,15.97
2022-08-28T05:27:54.357Z,16.10
2022-08-28T05:30:24.808Z,16.25
2022-08-28T05:32:55.048Z,16.33
2022-08-28T05:35:25.233Z,16.47
2022-08-28T05:37:55.550Z,16.73
2022-08-28T05:40:25.459Z,16.83
2022-08-28T05:42:57.857Z,16.94
2022-08-28T05:45:28.475Z,16.96
2022-08-28T05:47:58.575Z,17.21
2022-08-28T05:50:28.858Z,17.38
2022-08-28T05:52:58.642Z,17.43
2022-08-28T05:55:28.424Z,17.89
2022-08-28T05:58:21.413Z,17.36
2022-08-28T06:00:51.082Z,17.49
2022-08-28T06:03:20.817Z,17.63
2022-08-28T06:06:00.056Z,17.60
2022-08-28T06:08:30.272Z,17.68
2022-08-28T06:11:01.115Z,18.00
2022-08-28T06:13:35.653Z,18.13
2022-08-28T06:16:07.263Z,18.27
2022-08-28T06:18:38.249Z,18.43
2022-08-28T06:21:08.370Z,18.59
2022-08-28T06:23:38.441Z,18.49
2022-08-28T06:26:09.443Z,18.41
2022-08-28T06:28:42.136Z,18.58
2022-08-28T06:31:24.270Z,18.98
2022-08-28T06:33:57.375Z,18.97
2022-08-28T06:36:27.993Z,19.06
2022-08-28T06:39:00.304Z,19.03
2022-08-28T06:41:32.221Z,19.27
2022-08-28T06:44:05.080Z,19.44
2022-08-28T06:46:37.617Z,19.42
2022-08-28T06:49:09.988Z,19.76
2022-08-28T06:51:40.331Z,19.93
2022-08-28T06:54:10.344Z,19.67
2022-08-28T06:56:41.308Z,19.87
2022-08-28T06:59:14.009Z,20.14
2022-08-28T07:01:44.082Z,19.98
2022-08-28T07:04:15.695Z,19.83
2022-08-28T07:06:53.679Z,19.65
2022-08-28T07:09:27.018Z,19.78
2022-08-28T07:11:57.123Z,19.87
2022-08-28T07:14:31.210Z,19.28
2022-08-28T07:17:01.028Z,19.24
2022-08-28T07:19:31.900Z,19.12
2022-08-28T07:22:02.970Z,19.03
2022-08-28T07:24:33.950Z,19.16
2022-08-28T07:27:07.333Z,18.93
2022-08-28T07:29:42.868Z,18.93
2022-08-28T07:32:14.177Z,18.91
2022-08-28T07:34:46.518Z,19.08
2022-08-28T07:37:18.371Z,18.82
2022-08-28T07:39:49.030Z,19.24
2022-08-28T07:42:35.560Z,19.25
2022-08-28T07:45:12.768Z,19.45
2022-08-28T07:47:44.742Z,19.17
2022-08-28T07:50:16.715Z,19.24
2022-08-28T07:52:48.348Z,19.20
2022-08-28T07:55:19.291Z,19.44
2022-08-28T07:57:50.784Z,19.69
2022-08-28T08:00:26.166Z,19.73
2022-08-28T08:02:56.464Z,20.02
2022-08-28T08:05:27.237Z,19.77
2022-08-28T08:07:59.508Z,19.87
2022-08-28T08:10:34.176Z,19.55
2022-08-28T08:13:05.635Z,19.51
2022-08-28T08:15:41.726Z,19.26
2022-08-28T08:18:12.165Z,19.21
2022-08-28T08:20:42.355Z,19.37
2022-08-28T08:23:12.828Z,19.38
2022-08-28T08:25:42.836Z,19.53
2022-08-28T08:28:13.180Z,19.23
2022-08-28T08:30:46.667Z,19.03
2022-08-28T08:33:16.891Z,18.99
2022-08-28T08:35:47.188Z,19.35
2022-08-28T08:38:17.545Z,19.68
2022-08-28T08:40:49.245Z,19.63
2022-08-28T08:43:21.495Z,19.35
2022-08-28T08:45:54.676Z,19.52
2022-08-28T08:48:32.410Z,19.85
2022-08-28T08:51:07.157Z,19.55
2022-08-28T08:53:48.198Z,19.72
2022-08-28T08:56:22.038Z,19.74
2022-08-28T08:58:56.922Z,19.66
2022-08-28T09:01:34.549Z,19.47
2022-08-28T09:04:16.628Z,20.31
2022-08-28T09:06:54.673Z,21.43
2022-08-28T09:09:32.966Z,22.97
2022-08-28T09:12:05.137Z,23.22
2022-08-28T09:14:44.781Z,24.29
2022-08-28T09:17:21.881Z,24.01
2022-08-28T09:19:51.762Z,24.57
2022-08-28T09:22:22.744Z,24.37
2022-08-28T09:24:52.592Z,24.01
2022-08-28T09:27:27.476Z,23.73
2022-08-28T09:30:07.419Z,24.46
2022-08-28T09:32:43.933Z,26.03
2022-08-28T09:35:19.237Z,25.72
2022-08-28T09:37:48.907Z,25.97
2022-08-28T09:40:25.997Z,26.59
2022-08-28T09:43:18.920Z,25.57
2022-08-28T09:45:57.019Z,26.94
2022-08-28T09:48:35.926Z,25.57
2022-08-28T09:51:09.804Z,25.12
2022-08-28T09:53:56.733Z,25.47
2022-08-28T09:56:33.655Z,26.91
2022-08-28T09:59:05.894Z,25.79
2022-08-28T10:01:47.007Z,27.26
2022-08-28T10:04:34.282Z,25.77
2022-08-28T10:07:07.897Z,25.58
2022-08-28T10:09:48.121Z,26.74
2022-08-28T10:12:33.044Z,26.63
2022-08-28T10:15:11.435Z,27.75
2022-08-28T10:17:50.482Z,26.83
2022-08-28T10:20:32.931Z,29.03
2022-08-28T10:23:14.456Z,27.44
2022-08-28T10:25:53.355Z,28.35
2022-08-28T10:28:39.123Z,28.61
2022-08-28T10:31:21.058Z,28.29
2022-08-28T10:34:11.453Z,29.52
2022-08-28T10:36:51.836Z,28.57
2022-08-28T10:39:45.183Z,27.83
2022-08-28T10:42:15.405Z,27.72
2022-08-28T10:44:54.908Z,27.95
2022-08-28T10:47:28.374Z,28.09
2022-08-28T10:50:05.142Z,28.87
2022-08-28T10:52:43.616Z,27.97
2022-08-28T10:55:20.320Z,28.40
2022-08-28T10:57:53.669Z,28.92
2022-08-28T11:00:28.160Z,30.21
2022-08-28T11:03:00.724Z,29.62
2022-08-28T11:05:36.113Z,29.48
2022-08-28T11:08:12.194Z,29.62
2022-08-28T11:10:54.736Z,28.95
2022-08-28T11:13:46.278Z,29.09
2022-08-28T11:16:22.992Z,29.03
2022-08-28T11:19:14.739Z,28.27
2022-08-28T11:21:50.035Z,27.37
2022-08-28T11:25:02.398Z,27.28
2022-08-28T11:27:36.538Z,28.70
2022-08-28T11:30:34.381Z,30.29
2022-08-28T11:33:15.423Z,29.87
2022-08-28T11:35:51.916Z,29.95
2022-08-28T11:38:51.711Z,29.35
2022-08-28T11:41:27.943Z,29.98
2022-08-28T11:44:28.527Z,28.90
2022-08-28T11:47:19.115Z,29.20
2022-08-28T11:49:50.260Z,29.68
2022-08-28T11:52:41.223Z,29.23
2022-08-28T11:55:25.009Z,28.36
2022-08-28T12:00:54.438Z,28.46
2022-08-28T12:03:36.945Z,29.82
2022-08-28T12:06:08.724Z,29.34
2022-08-28T12:09:11.042Z,29.14
2022-08-28T12:11:56.325Z,29.48
2022-08-28T12:15:08.026Z,29.10
2022-08-28T12:17:54.813Z,28.77
2022-08-28T12:21:07.132Z,29.52
2022-08-28T12:23:45.491Z,28.96
2022-08-28T12:26:30.230Z,28.69
2022-08-28T12:29:02.958Z,28.01
2022-08-28T12:32:18.894Z,27.82
2022-08-28T12:34:56.149Z,28.80
2022-08-28T12:37:39.771Z,29.20
2022-08-28T12:40:25.994Z,29.27
2022-08-28T12:43:00.319Z,28.91
2022-08-28T12:45:34.975Z,28.95
2022-08-28T12:48:08.781Z,28.69
2022-08-28T12:50:46.051Z,28.78
2022-08-28T12:53:22.907Z,28.27
2022-08-28T12:55:54.331Z,28.46
2022-08-28T12:58:36.874Z,28.77
2022-08-28T13:01:10.733Z,28.53
2022-08-28T13:03:49.039Z,27.93
2022-08-28T13:06:32.262Z,28.27
2022-08-28T13:09:05.340Z,28.56
2022-08-28T13:11:39.489Z,29.07
2022-08-28T13:14:11.144Z,28.64
2022-08-28T13:17:02.548Z,29.34
2022-08-28T13:19:34.883Z,28.67
2022-08-28T13:22:09.987Z,28.75
2022-08-28T13:24:44.361Z,29.06
2022-08-28T13:27:27.603Z,29.37
2022-08-28T13:30:04.463Z,29.54
2022-08-28T13:32:36.290Z,29.29
2022-08-28T13:35:25.110Z,28.58
2022-08-28T13:38:03.539Z,28.42
2022-08-28T13:41:00.193Z,28.38
2022-08-28T13:43:57.355Z,28.02
2022-08-28T13:46:27.353Z,27.78
2022-08-28T13:48:57.113Z,27.72
2022-08-28T13:51:29.408Z,27.11
2022-08-28T13:54:02.706Z,27.65
2022-08-28T13:56:32.666Z,28.03
2022-08-28T13:59:02.608Z,27.95
2022-08-28T14:01:44.659Z,27.86
2022-08-28T14:04:14.619Z,27.75
2022-08-28T14:06:44.637Z,28.03
2022-08-28T14:09:18.306Z,27.94
2022-08-28T14:11:48.582Z,28.47
2022-08-28T14:14:19.380Z,27.92
2022-08-28T14:16:50.530Z,27.63
2022-08-28T14:19:20.534Z,27.11
2022-08-28T14:21:52.181Z,27.22
2022-08-28T14:24:25.277Z,26.69
2022-08-28T14:26:57.042Z,26.99
2022-08-28T14:29:27.140Z,26.64
2022-08-28T14:31:57.636Z,26.48
2022-08-28T14:34:28.071Z,26.25
2022-08-28T14:36:58.220Z,26.14
2022-08-28T14:39:33.951Z,26.30
2022-08-28T14:42:04.498Z,26.89
2022-08-28T14:44:41.962Z,26.88
2022-08-28T14:47:14.335Z,26.79
2022-08-28T14:49:44.443Z,26.32
2022-08-28T14:52:16.218Z,26.35
2022-08-28T14:54:51.695Z,26.66
2022-08-28T14:57:21.524Z,26.67
2022-08-28T14:59:52.400Z,26.63
2022-08-28T15:02:23.527Z,26.58
2022-08-28T15:04:54.906Z,26.44
2022-08-28T15:07:25.433Z,26.42
2022-08-28T15:09:57.938Z,26.79
2022-08-28T15:12:27.758Z,26.67
2022-08-28T15:14:59.402Z,26.46
2022-08-28T15:17:33.791Z,26.60
2022-08-28T15:20:05.793Z,26.65
2022-08-28T15:22:36.128Z,26.27
2022-08-28T15:25:09.611Z,26.35
2022-08-28T15:27:40.288Z,25.77
2022-08-28T15:30:11.712Z,26.44
2022-08-28T15:32:43.275Z,26.23
2022-08-28T15:35:14.136Z,25.87
2022-08-28T15:37:44.037Z,26.00
2022-08-28T15:40:29.785Z,25.45
2022-08-28T15:42:59.796Z,25.27
2022-08-28T15:45:29.718Z,25.04
2022-08-28T15:48:01.082Z,25.09
2022-08-28T15:50:30.793Z,24.88
2022-08-28T15:53:00.613Z,24.74
2022-08-28T15:55:34.130Z,25.08
2022-08-28T15:58:13.894Z,24.89
2022-08-28T16:00:44.563Z,24.34
2022-08-28T16:03:14.715Z,24.51
2022-08-28T16:05:46.941Z,24.13
2022-08-28T16:08:17.233Z,23.90
2022-08-28T16:10:54.000Z,23.79
2022-08-28T16:13:24.595Z,23.56
2022-08-28T16:15:54.778Z,23.68
2022-08-28T16:18:25.909Z,23.68
2022-08-28T16:20:59.523Z,23.56
2022-08-28T16:23:31.222Z,23.46
2022-08-28T16:26:04.829Z,23.44
2022-08-28T16:28:38.228Z,23.37
2022-08-28T16:31:19.327Z,23.24
2022-08-28T16:33:51.534Z,23.20
2022-08-28T16:36:23.916Z,23.15
2022-08-28T16:39:03.535Z,23.23
2022-08-28T16:41:39.478Z,23.12
2022-08-28T16:44:09.751Z,22.90
2022-08-28T16:46:39.908Z,22.91
2022-08-28T16:49:11.090Z,22.92
2022-08-28T16:51:40.970Z,22.71
2022-08-28T16:54:10.654Z,22.65
2022-08-28T16:56:43.424Z,22.63
2022-08-28T16:59:16.639Z,22.59
2022-08-28T17:01:52.998Z,22.39
2022-08-28T17:04:24.092Z,22.47
2022-08-28T17:06:53.931Z,22.33
2022-08-28T17:09:25.562Z,22.26
2022-08-28T17:11:58.174Z,22.14
2022-08-28T17:14:29.921Z,22.06
2022-08-28T17:17:01.829Z,22.15
2022-08-28T17:19:31.730Z,22.05
2022-08-28T17:22:13.862Z,22.04
2022-08-28T17:24:44.075Z,22.01
2022-08-28T17:27:22.466Z,21.91
2022-08-28T17:29:53.670Z,21.83
2022-08-28T17:32:23.862Z,21.76
2022-08-28T17:34:56.230Z,21.65
2022-08-28T17:37:26.539Z,21.62
2022-08-28T17:39:56.310Z,21.68
2022-08-28T17:42:29.256Z,21.59
2022-08-28T17:44:59.284Z,21.42
2022-08-28T17:47:30.940Z,21.49
2022-08-28T17:50:01.817Z,21.42
2022-08-28T17:52:34.184Z,21.25
2022-08-28T17:55:04.629Z,21.14
2022-08-28T17:57:37.321Z,21.12
2022-08-28T18:00:12.601Z,21.08
2022-08-28T18:02:43.833Z,21.04
2022-08-28T18:05:16.843Z,20.84
2022-08-28T18:07:47.660Z,20.93
2022-08-28T18:10:17.932Z,20.86
2022-08-28T18:12:51.399Z,20.67
2022-08-28T18:15:22.456Z,20.67
2022-08-28T18:17:52.852Z,20.55
2022-08-28T18:20:22.915Z,20.58
2022-08-28T18:22:54.700Z,20.60
2022-08-28T18:25:37.373Z,20.48
2022-08-28T18:28:24.058Z,20.43
2022-08-28T18:30:56.414Z,20.40
2022-08-28T18:33:27.325Z,20.31
2022-08-28T18:35:57.151Z,20.30
2022-08-28T18:38:29.237Z,20.23
2022-08-28T18:41:00.177Z,20.20
2022-08-28T18:43:33.242Z,20.14
2022-08-28T18:46:05.278Z,20.14
2022-08-28T18:48:36.172Z,20.02
2022-08-28T18:51:08.752Z,20.02
2022-08-28T18:53:42.388Z,19.89
2022-08-28T18:56:13.718Z,19.85
2022-08-28T18:58:46.964Z,19.85
2022-08-28T19:01:17.402Z,19.82
2022-08-28T19:03:47.291Z,19.62
2022-08-28T19:06:18.391Z,19.67
2022-08-28T19:08:48.811Z,19.62
2022-08-28T19:11:22.311Z,19.70
2022-08-28T19:13:55.153Z,19.68
2022-08-28T19:16:26.044Z,19.49
2022-08-28T19:18:56.355Z,19.53
2022-08-28T19:21:27.674Z,19.50
2022-08-28T19:23:57.763Z,19.42
2022-08-28T19:26:28.107Z,19.30
2022-08-28T19:29:01.566Z,19.25
2022-08-28T19:31:33.037Z,19.21
2022-08-28T19:34:02.871Z,19.26
2022-08-28T19:36:33.706Z,19.17
2022-08-28T19:39:03.709Z,19.10
2022-08-28T19:41:33.511Z,19.21
2022-08-28T19:44:06.700Z,19.05
2022-08-28T19:46:38.859Z,19.04
2022-08-28T19:49:09.614Z,18.92
2022-08-28T19:51:42.795Z,18.88
2022-08-28T19:54:15.104Z,18.89
2022-08-28T19:56:48.927Z,18.92
2022-08-28T19:59:25.217Z,18.93
2022-08-28T20:01:56.988Z,18.82
2022-08-28T20:04:27.144Z,18.82
2022-08-28T20:06:57.146Z,18.78
2022-08-28T20:09:27.417Z,18.76
2022-08-28T20:11:57.865Z,18.79
2022-08-28T20:14:30.579Z,18.71
2022-08-28T20:17:01.434Z,18.59
2022-08-28T20:19:31.588Z,18.61
2022-08-28T20:22:01.478Z,18.56
2022-08-28T20:24:31.672Z,18.55
2022-08-28T20:27:01.618Z,18.51
2022-08-28T20:29:39.519Z,18.47
2022-08-28T20:32:09.997Z,18.42
2022-08-28T20:34:44.682Z,18.36
2022-08-28T20:37:17.536Z,18.44
2022-08-28T20:39:48.391Z,18.28
2022-08-28T20:42:18.817Z,18.20
2022-08-28T20:44:51.256Z,18.10
2022-08-28T20:47:23.566Z,18.01
2022-08-28T20:49:53.879Z,18.00
2022-08-28T20:52:23.999Z,18.04
2022-08-28T20:54:53.715Z,17.91
2022-08-28T20:57:24.944Z,17.88
2022-08-28T21:00:00.207Z,17.79
2022-08-28T21:02:33.396Z,17.80
2022-08-28T21:05:04.225Z,17.78
2022-08-28T21:07:36.399Z,17.85
2022-08-28T21:10:08.297Z,17.84
2022-08-28T21:12:38.957Z,17.72
2022-08-28T21:15:15.786Z,17.82
2022-08-28T21:17:45.602Z,17.86
2022-08-28T21:20:20.286Z,17.86
2022-08-28T21:22:51.188Z,17.77
2022-08-28T21:25:24.648Z,17.75
2022-08-28T21:27:55.283Z,17.78
2022-08-28T21:30:29.646Z,17.82
2022-08-28T21:33:00.111Z,17.73
2022-08-28T21:35:29.849Z,17.71
2022-08-28T21:37:59.591Z,17.64
2022-08-28T21:40:29.707Z,17.61
2022-08-28T21:42:59.755Z,17.55
2022-08-28T21:45:32.347Z,17.54
2022-08-28T21:48:02.598Z,17.52
2022-08-28T21:50:32.477Z,17.38
2022-08-28T21:53:03.202Z,17.26
2022-08-28T21:55:33.151Z,17.26
2022-08-28T21:58:02.808Z,17.25
2022-08-28T22:00:35.627Z,17.15
2022-08-28T22:03:05.653Z,17.27
2022-08-28T22:05:35.881Z,17.22
2022-08-28T22:08:07.347Z,17.13
2022-08-28T22:10:40.379Z,17.05
2022-08-28T22:13:11.641Z,16.87
2022-08-28T22:15:46.808Z,16.92
2022-08-28T22:18:18.370Z,16.95
2022-08-28T22:21:03.817Z,16.78
2022-08-28T22:23:35.376Z,16.84
2022-08-28T22:26:07.244Z,16.87
2022-08-28T22:28:37.773Z,16.72
2022-08-28T22:31:10.443Z,16.74
2022-08-28T22:33:40.465Z,16.76
2022-08-28T22:36:11.113Z,16.60
2022-08-28T22:38:42.597Z,16.71
2022-08-28T22:41:24.361Z,16.72
2022-08-28T22:43:56.608Z,16.52
2022-08-28T22:46:30.655Z,16.59
2022-08-28T22:49:00.436Z,16.63
2022-08-28T22:51:31.863Z,16.57
2022-08-28T22:54:01.686Z,16.47
2022-08-28T22:56:31.769Z,16.47
2022-08-28T22:59:01.589Z,16.36
2022-08-28T23:01:34.470Z,16.24
2022-08-28T23:04:05.766Z,16.29
2022-08-28T23:06:35.757Z,16.28
2022-08-28T23:09:06.112Z,16.31
2022-08-28T23:11:36.116Z,16.23
2022-08-28T23:14:06.436Z,16.29
2022-08-28T23:16:41.721Z,16.06
2022-08-28T23:19:13.473Z,16.11
2022-08-28T23:21:44.550Z,16.09
2022-08-28T23:24:16.225Z,16.14
2022-08-28T23:26:48.142Z,16.10
2022-08-28T23:29:18.430Z,16.06
2022-08-28T23:31:52.796Z,16.07
2022-08-28T23:34:24.709Z,16.07
2022-08-28T23:36:54.837Z,15.96
2022-08-28T23:39:25.503Z,15.96
2022-08-28T23:41:57.820Z,15.90
2022-08-28T23:44:28.202Z,15.89
2022-08-28T23:47:01.559Z,15.82
2022-08-28T23:49:32.990Z,15.73
2022-08-28T23:52:02.969Z,15.80
2022-08-28T23:54:32.629Z,15.79
2022-08-28T23:57:02.749Z,15.78
2022-08-28T23:59:35.196Z,15.80
